Time;durP1;ratioP1;P1;durP2;ratioP2;P2;SDS_P1;SDS_P2;PMS_P1;PMS_P2;Temp;Humidity;BMP_temperature;BMP_pressure;BME280_temperature;BME280_humidity;BME280_pressure;Samples;Min_cycle;Max_cycle;Signal;HPM_P1;HPM_P2
2021/03/09 22:18:44;;;;;;;10.50;3.00;;;;;;;-0.89;41.86;101166.22;1743697;77;22462;-58
2021/03/09 22:21:12;;;;;;;8.60;3.05;;;;;;;-0.98;42.17;101165.88;1712822;83;21157;-60
2021/03/09 22:23:39;;;;;;;8.10;3.10;;;;;;;-1.00;42.29;101162.92;1711490;83;21172;-58
2021/03/09 22:26:09;;;;;;;9.03;3.98;;;;;;;-1.03;42.26;101168.52;1720439;83;21411;-57
2021/03/09 22:28:36;;;;;;;8.55;3.37;;;;;;;-1.11;42.41;101169.52;1722163;82;21173;-61
2021/03/09 22:31:04;;;;;;;10.93;4.33;;;;;;;-1.16;42.43;101164.45;1735405;82;21160;-59
2021/03/09 22:33:33;;;;;;;8.95;3.83;;;;;;;-1.20;42.67;101161.59;1719705;82;21201;-58
2021/03/09 22:36:00;;;;;;;12.33;4.47;;;;;;;-1.25;42.89;101169.11;1721492;83;21498;-57
2021/03/09 22:38:28;;;;;;;10.50;4.70;;;;;;;-1.37;42.98;101171.24;1746932;81;21898;-60
2021/03/09 22:40:55;;;;;;;10.68;4.47;;;;;;;-1.60;42.65;101179.00;1739909;81;21201;-58
2021/03/09 22:43:22;;;;;;;12.60;4.97;;;;;;;-1.82;42.81;101179.17;1725497;83;21318;-56
2021/03/09 22:45:49;;;;;;;12.53;4.75;;;;;;;-1.94;43.34;101175.45;1725428;83;21232;-58
2021/03/09 22:48:17;;;;;;;11.43;4.20;;;;;;;-2.04;43.60;101182.34;1709139;81;21181;-59
2021/03/09 22:50:46;;;;;;;17.60;4.80;;;;;;;-2.19;44.02;101181.49;1696708;84;21212;-58
2021/03/09 22:53:13;;;;;;;12.15;4.45;;;;;;;-2.21;44.20;101187.44;1709154;83;21180;-57
2021/03/09 22:55:41;;;;;;;13.48;4.95;;;;;;;-2.19;44.42;101186.86;1725808;83;21439;-58
2021/03/09 22:58:08;;;;;;;9.75;4.40;;;;;;;-2.17;44.60;101187.62;1725592;83;21895;-58
2021/03/09 23:00:36;;;;;;;12.78;4.75;;;;;;;-2.19;44.56;101188.20;1725659;81;21422;-59
2021/03/09 23:03:03;;;;;;;9.98;4.45;;;;;;;-2.20;45.14;101195.02;1725687;82;21185;-58
2021/03/09 23:05:32;;;;;;;12.10;4.72;;;;;;;-2.22;45.56;101197.80;1725807;83;21153;-59
2021/03/09 23:08:00;;;;;;;12.98;4.25;;;;;;;-2.22;45.55;101197.80;1725645;83;21212;-59
2021/03/09 23:10:27;;;;;;;9.95;4.30;;;;;;;-2.21;45.44;101199.52;1725720;83;21897;-58
2021/03/09 23:12:54;;;;;;;10.13;4.47;;;;;;;-2.34;45.47;101204.79;1725799;81;21868;-59
2021/03/09 23:15:22;;;;;;;9.75;4.30;;;;;;;-2.44;45.42;101204.98;1725695;83;21454;-58
2021/03/09 23:17:49;;;;;;;13.70;4.55;;;;;;;-2.49;45.53;101207.56;1724688;82;21465;-58
2021/03/09 23:20:24;;;;;;;8.85;3.95;;;;;;;-2.50;45.73;101210.72;1723529;83;21420;-57
2021/03/09 23:22:51;;;;;;;11.55;4.28;;;;;;;-2.58;45.88;101211.20;1723785;83;21477;-59
2021/03/09 23:25:21;;;;;;;13.93;4.28;;;;;;;-2.66;46.06;101215.27;1723614;83;21443;-58
2021/03/09 23:27:49;;;;;;;10.90;4.40;;;;;;;-2.67;46.38;101219.77;1723704;82;21176;-58
2021/03/09 23:30:18;;;;;;;10.80;4.25;;;;;;;-2.65;46.68;101215.66;1723145;83;21161;-58
2021/03/09 23:32:46;;;;;;;12.58;4.65;;;;;;;-2.66;46.98;101214.80;1723242;83;21371;-59
2021/03/09 23:35:15;;;;;;;12.60;4.92;;;;;;;-2.66;47.02;101221.98;1723075;83;21837;-58
2021/03/09 23:37:43;;;;;;;9.95;4.12;;;;;;;-2.65;47.04;101223.70;1723189;83;21176;-58
2021/03/09 23:40:14;;;;;;;13.62;5.47;;;;;;;-2.67;47.05;101214.89;1723138;83;21395;-58
2021/03/09 23:42:41;;;;;;;18.52;6.62;;;;;;;-2.70;47.05;101216.42;1723229;82;21189;-57
2021/03/09 23:45:10;;;;;;;42.75;17.67;;;;;;;-2.69;46.97;101219.48;1723174;83;21172;-57
2021/03/09 23:47:39;;;;;;;38.80;15.25;;;;;;;-2.72;47.12;101221.01;1723228;83;21291;-59
2021/03/09 23:50:09;;;;;;;44.48;16.52;;;;;;;-2.74;47.11;101216.22;1723085;83;21193;-58
2021/03/09 23:52:36;;;;;;;28.67;13.08;;;;;;;-2.77;47.23;101217.74;1723238;83;21224;-56
2021/03/09 23:55:06;;;;;;;30.68;12.90;;;;;;;-2.79;47.32;101219.17;1723152;83;21339;-58
2021/03/09 23:57:34;;;;;;;32.40;11.68;;;;;;;-2.80;47.50;101223.29;1723131;83;21193;-59
